sensor_id;sensor_type;location;lat;lon;timestamp;P1;durP1;ratioP1;P2;durP2;ratioP2
27201;SDS011;14717;46.924;15.474;2024-01-11T00:00:11;30.88;;;13.38;;
27201;SDS011;14717;46.924;15.474;2024-01-11T00:02:37;32.40;;;12.65;;
27201;SDS011;14717;46.924;15.474;2024-01-11T00:05:02;32.50;;;13.55;;
27201;SDS011;14717;46.924;15.474;2024-01-11T00:07:27;26.65;;;12.20;;
27201;SDS011;14717;46.924;15.474;2024-01-11T00:09:53;30.75;;;12.68;;
27201;SDS011;14717;46.924;15.474;2024-01-11T00:12:18;27.77;;;13.20;;
27201;SDS011;14717;46.924;15.474;2024-01-11T00:14:43;29.98;;;12.32;;
27201;SDS011;14717;46.924;15.474;2024-01-11T00:17:09;30.95;;;12.45;;
27201;SDS011;14717;46.924;15.474;2024-01-11T00:19:34;29.05;;;14.35;;
27201;SDS011;14717;46.924;15.474;2024-01-11T00:21:59;31.48;;;11.65;;
27201;SDS011;14717;46.924;15.474;2024-01-11T00:24:25;28.17;;;12.18;;
27201;SDS011;14717;46.924;15.474;2024-01-11T00:26:50;32.13;;;12.85;;
27201;SDS011;14717;46.924;15.474;2024-01-11T00:29:15;29.48;;;12.05;;
27201;SDS011;14717;46.924;15.474;2024-01-11T00:31:41;29.13;;;11.82;;
27201;SDS011;14717;46.924;15.474;2024-01-11T00:34:06;32.72;;;12.27;;
27201;SDS011;14717;46.924;15.474;2024-01-11T00:36:32;31.73;;;11.82;;
27201;SDS011;14717;46.924;15.474;2024-01-11T00:39:01;29.77;;;12.63;;
27201;SDS011;14717;46.924;15.474;2024-01-11T00:41:27;27.85;;;11.80;;
27201;SDS011;14717;46.924;15.474;2024-01-11T00:43:52;33.55;;;14.00;;
27201;SDS011;14717;46.924;15.474;2024-01-11T00:46:17;27.83;;;12.40;;
27201;SDS011;14717;46.924;15.474;2024-01-11T00:48:43;33.63;;;12.90;;
27201;SDS011;14717;46.924;15.474;2024-01-11T00:51:08;29.77;;;12.05;;
27201;SDS011;14717;46.924;15.474;2024-01-11T00:53:33;23.77;;;12.23;;
27201;SDS011;14717;46.924;15.474;2024-01-11T00:55:59;30.08;;;11.63;;
27201;SDS011;14717;46.924;15.474;2024-01-11T00:58:25;26.92;;;10.30;;
27201;SDS011;14717;46.924;15.474;2024-01-11T01:00:51;23.75;;;10.93;;
27201;SDS011;14717;46.924;15.474;2024-01-11T01:03:18;25.95;;;10.80;;
27201;SDS011;14717;46.924;15.474;2024-01-11T01:05:44;23.45;;;10.23;;
27201;SDS011;14717;46.924;15.474;2024-01-11T01:08:10;25.70;;;11.80;;
27201;SDS011;14717;46.924;15.474;2024-01-11T01:10:35;22.33;;;10.45;;
27201;SDS011;14717;46.924;15.474;2024-01-11T01:13:01;23.73;;;10.68;;
27201;SDS011;14717;46.924;15.474;2024-01-11T01:15:26;25.58;;;10.35;;
27201;SDS011;14717;46.924;15.474;2024-01-11T01:17:51;23.13;;;9.68;;
27201;SDS011;14717;46.924;15.474;2024-01-11T01:20:17;19.85;;;8.82;;
27201;SDS011;14717;46.924;15.474;2024-01-11T01:22:42;22.48;;;9.82;;
27201;SDS011;14717;46.924;15.474;2024-01-11T01:25:07;26.00;;;9.98;;
27201;SDS011;14717;46.924;15.474;2024-01-11T01:27:33;22.92;;;10.07;;
27201;SDS011;14717;46.924;15.474;2024-01-11T01:29:58;23.63;;;10.00;;
27201;SDS011;14717;46.924;15.474;2024-01-11T01:32:23;23.85;;;10.77;;
27201;SDS011;14717;46.924;15.474;2024-01-11T01:34:49;19.50;;;9.48;;
27201;SDS011;14717;46.924;15.474;2024-01-11T01:37:14;27.27;;;10.07;;
27201;SDS011;14717;46.924;15.474;2024-01-11T01:39:40;21.67;;;9.88;;
27201;SDS011;14717;46.924;15.474;2024-01-11T01:42:05;24.20;;;9.88;;
27201;SDS011;14717;46.924;15.474;2024-01-11T01:44:31;24.05;;;10.40;;
27201;SDS011;14717;46.924;15.474;2024-01-11T01:46:57;25.17;;;10.68;;
27201;SDS011;14717;46.924;15.474;2024-01-11T01:49:23;23.45;;;9.27;;
27201;SDS011;14717;46.924;15.474;2024-01-11T01:51:48;24.40;;;10.10;;
27201;SDS011;14717;46.924;15.474;2024-01-11T01:54:15;23.88;;;10.35;;
27201;SDS011;14717;46.924;15.474;2024-01-11T01:56:41;24.63;;;11.10;;
27201;SDS011;14717;46.924;15.474;2024-01-11T01:59:07;22.67;;;9.82;;
27201;SDS011;14717;46.924;15.474;2024-01-11T02:01:35;24.50;;;9.15;;
27201;SDS011;14717;46.924;15.474;2024-01-11T02:04:01;24.17;;;9.63;;
27201;SDS011;14717;46.924;15.474;2024-01-11T02:06:26;20.80;;;9.43;;
27201;SDS011;14717;46.924;15.474;2024-01-11T02:08:55;22.13;;;9.73;;
27201;SDS011;14717;46.924;15.474;2024-01-11T02:11:21;23.20;;;9.63;;
27201;SDS011;14717;46.924;15.474;2024-01-11T02:13:48;22.25;;;9.57;;
27201;SDS011;14717;46.924;15.474;2024-01-11T02:16:15;24.27;;;11.15;;
27201;SDS011;14717;46.924;15.474;2024-01-11T02:18:40;21.02;;;10.25;;
27201;SDS011;14717;46.924;15.474;2024-01-11T02:21:06;21.60;;;9.93;;
27201;SDS011;14717;46.924;15.474;2024-01-11T02:23:35;21.35;;;10.02;;
27201;SDS011;14717;46.924;15.474;2024-01-11T02:26:05;21.65;;;9.82;;
27201;SDS011;14717;46.924;15.474;2024-01-11T02:28:30;23.98;;;9.95;;
27201;SDS011;14717;46.924;15.474;2024-01-11T02:30:56;22.80;;;9.90;;
27201;SDS011;14717;46.924;15.474;2024-01-11T02:33:21;26.30;;;11.07;;
27201;SDS011;14717;46.924;15.474;2024-01-11T02:35:47;20.55;;;10.23;;
27201;SDS011;14717;46.924;15.474;2024-01-11T02:38:13;20.25;;;9.15;;
27201;SDS011;14717;46.924;15.474;2024-01-11T02:40:38;26.90;;;9.63;;
27201;SDS011;14717;46.924;15.474;2024-01-11T02:43:08;22.70;;;9.73;;
27201;SDS011;14717;46.924;15.474;2024-01-11T02:45:35;22.63;;;9.57;;
27201;SDS011;14717;46.924;15.474;2024-01-11T02:48:00;23.23;;;9.75;;
27201;SDS011;14717;46.924;15.474;2024-01-11T02:50:25;23.42;;;10.15;;
27201;SDS011;14717;46.924;15.474;2024-01-11T02:52:51;23.67;;;10.23;;
27201;SDS011;14717;46.924;15.474;2024-01-11T02:55:16;25.25;;;9.52;;
27201;SDS011;14717;46.924;15.474;2024-01-11T02:57:42;25.27;;;9.73;;
27201;SDS011;14717;46.924;15.474;2024-01-11T03:00:07;25.25;;;11.02;;
27201;SDS011;14717;46.924;15.474;2024-01-11T03:02:33;23.45;;;9.80;;
27201;SDS011;14717;46.924;15.474;2024-01-11T03:04:58;22.25;;;9.35;;
27201;SDS011;14717;46.924;15.474;2024-01-11T03:07:23;22.52;;;10.07;;
27201;SDS011;14717;46.924;15.474;2024-01-11T03:09:49;24.85;;;10.90;;
27201;SDS011;14717;46.924;15.474;2024-01-11T03:12:14;31.20;;;10.98;;
27201;SDS011;14717;46.924;15.474;2024-01-11T03:14:39;24.52;;;11.07;;
27201;SDS011;14717;46.924;15.474;2024-01-11T03:17:05;22.48;;;10.60;;
27201;SDS011;14717;46.924;15.474;2024-01-11T03:19:30;23.55;;;9.93;;
27201;SDS011;14717;46.924;15.474;2024-01-11T03:21:55;24.75;;;10.52;;
27201;SDS011;14717;46.924;15.474;2024-01-11T03:24:21;20.80;;;8.77;;
27201;SDS011;14717;46.924;15.474;2024-01-11T03:26:47;24.30;;;10.63;;
27201;SDS011;14717;46.924;15.474;2024-01-11T03:29:13;27.98;;;9.88;;
27201;SDS011;14717;46.924;15.474;2024-01-11T03:31:38;23.17;;;9.45;;
27201;SDS011;14717;46.924;15.474;2024-01-11T03:34:06;26.00;;;10.82;;
27201;SDS011;14717;46.924;15.474;2024-01-11T03:36:32;20.13;;;9.23;;
27201;SDS011;14717;46.924;15.474;2024-01-11T03:38:57;23.75;;;9.77;;
27201;SDS011;14717;46.924;15.474;2024-01-11T03:41:23;22.52;;;10.05;;
27201;SDS011;14717;46.924;15.474;2024-01-11T03:43:49;23.88;;;10.20;;
27201;SDS011;14717;46.924;15.474;2024-01-11T03:46:15;21.58;;;10.43;;
27201;SDS011;14717;46.924;15.474;2024-01-11T03:48:40;22.58;;;10.43;;
27201;SDS011;14717;46.924;15.474;2024-01-11T03:51:06;20.23;;;9.13;;
27201;SDS011;14717;46.924;15.474;2024-01-11T03:53:34;23.58;;;10.45;;
27201;SDS011;14717;46.924;15.474;2024-01-11T03:56:01;24.23;;;10.40;;
27201;SDS011;14717;46.924;15.474;2024-01-11T03:58:27;23.30;;;9.95;;
27201;SDS011;14717;46.924;15.474;2024-01-11T04:00:52;26.50;;;10.65;;
27201;SDS011;14717;46.924;15.474;2024-01-11T04:03:17;21.10;;;9.82;;
27201;SDS011;14717;46.924;15.474;2024-01-11T04:05:43;22.52;;;9.05;;
27201;SDS011;14717;46.924;15.474;2024-01-11T04:08:08;25.77;;;10.23;;
27201;SDS011;14717;46.924;15.474;2024-01-11T04:10:33;25.38;;;11.20;;
27201;SDS011;14717;46.924;15.474;2024-01-11T04:12:59;24.00;;;10.43;;
27201;SDS011;14717;46.924;15.474;2024-01-11T04:15:24;26.33;;;10.93;;
27201;SDS011;14717;46.924;15.474;2024-01-11T04:17:50;21.30;;;9.77;;
27201;SDS011;14717;46.924;15.474;2024-01-11T04:20:15;23.33;;;10.38;;
27201;SDS011;14717;46.924;15.474;2024-01-11T04:22:41;26.38;;;11.32;;
27201;SDS011;14717;46.924;15.474;2024-01-11T04:25:06;25.23;;;10.27;;
27201;SDS011;14717;46.924;15.474;2024-01-11T04:27:32;23.65;;;10.40;;
27201;SDS011;14717;46.924;15.474;2024-01-11T04:29:57;27.48;;;11.75;;
27201;SDS011;14717;46.924;15.474;2024-01-11T04:32:23;27.60;;;11.60;;
27201;SDS011;14717;46.924;15.474;2024-01-11T04:34:48;22.67;;;10.30;;
27201;SDS011;14717;46.924;15.474;2024-01-11T04:37:13;24.55;;;10.18;;
27201;SDS011;14717;46.924;15.474;2024-01-11T04:39:39;23.95;;;9.73;;
27201;SDS011;14717;46.924;15.474;2024-01-11T04:42:04;25.10;;;10.38;;
27201;SDS011;14717;46.924;15.474;2024-01-11T04:44:29;20.08;;;9.13;;
27201;SDS011;14717;46.924;15.474;2024-01-11T04:46:55;23.25;;;10.13;;
27201;SDS011;14717;46.924;15.474;2024-01-11T04:49:20;28.90;;;12.02;;
27201;SDS011;14717;46.924;15.474;2024-01-11T04:51:45;23.50;;;10.02;;
27201;SDS011;14717;46.924;15.474;2024-01-11T04:54:11;23.48;;;10.75;;
27201;SDS011;14717;46.924;15.474;2024-01-11T04:56:36;22.30;;;10.50;;
27201;SDS011;14717;46.924;15.474;2024-01-11T04:59:01;26.50;;;10.75;;
27201;SDS011;14717;46.924;15.474;2024-01-11T05:01:27;29.63;;;12.57;;
27201;SDS011;14717;46.924;15.474;2024-01-11T05:03:52;24.55;;;10.73;;
27201;SDS011;14717;46.924;15.474;2024-01-11T05:06:18;24.17;;;9.98;;
27201;SDS011;14717;46.924;15.474;2024-01-11T05:08:49;26.10;;;10.60;;
27201;SDS011;14717;46.924;15.474;2024-01-11T05:11:19;26.15;;;10.00;;
27201;SDS011;14717;46.924;15.474;2024-01-11T05:13:46;23.88;;;10.52;;
27201;SDS011;14717;46.924;15.474;2024-01-11T05:16:22;27.95;;;10.65;;
27201;SDS011;14717;46.924;15.474;2024-01-11T05:18:50;22.00;;;10.43;;
27201;SDS011;14717;46.924;15.474;2024-01-11T05:21:16;25.75;;;10.85;;
27201;SDS011;14717;46.924;15.474;2024-01-11T05:23:42;26.80;;;10.45;;
27201;SDS011;14717;46.924;15.474;2024-01-11T05:26:08;24.08;;;10.27;;
27201;SDS011;14717;46.924;15.474;2024-01-11T05:28:34;24.33;;;11.05;;
27201;SDS011;14717;46.924;15.474;2024-01-11T05:30:59;24.25;;;9.05;;
27201;SDS011;14717;46.924;15.474;2024-01-11T05:33:24;23.95;;;9.90;;
27201;SDS011;14717;46.924;15.474;2024-01-11T05:35:50;26.83;;;9.93;;
27201;SDS011;14717;46.924;15.474;2024-01-11T05:38:15;25.05;;;10.93;;
27201;SDS011;14717;46.924;15.474;2024-01-11T05:40:40;22.92;;;9.30;;
27201;SDS011;14717;46.924;15.474;2024-01-11T05:43:06;25.45;;;10.77;;
27201;SDS011;14717;46.924;15.474;2024-01-11T05:45:31;22.30;;;9.80;;
27201;SDS011;14717;46.924;15.474;2024-01-11T05:47:58;21.50;;;9.50;;
27201;SDS011;14717;46.924;15.474;2024-01-11T05:50:24;20.77;;;9.95;;
27201;SDS011;14717;46.924;15.474;2024-01-11T05:52:50;25.80;;;11.20;;
27201;SDS011;14717;46.924;15.474;2024-01-11T05:55:17;22.15;;;10.02;;
27201;SDS011;14717;46.924;15.474;2024-01-11T05:57:42;22.95;;;10.38;;
27201;SDS011;14717;46.924;15.474;2024-01-11T06:00:07;25.25;;;9.93;;
27201;SDS011;14717;46.924;15.474;2024-01-11T06:02:33;21.40;;;9.77;;
27201;SDS011;14717;46.924;15.474;2024-01-11T06:04:58;22.10;;;10.23;;
27201;SDS011;14717;46.924;15.474;2024-01-11T06:07:24;23.25;;;9.98;;
27201;SDS011;14717;46.924;15.474;2024-01-11T06:09:49;24.40;;;10.25;;
27201;SDS011;14717;46.924;15.474;2024-01-11T06:12:14;24.80;;;10.85;;
27201;SDS011;14717;46.924;15.474;2024-01-11T06:14:40;22.33;;;10.00;;
27201;SDS011;14717;46.924;15.474;2024-01-11T06:17:05;28.25;;;11.50;;
27201;SDS011;14717;46.924;15.474;2024-01-11T06:19:31;24.58;;;10.85;;
27201;SDS011;14717;46.924;15.474;2024-01-11T06:21:56;30.60;;;11.55;;
27201;SDS011;14717;46.924;15.474;2024-01-11T06:24:21;23.33;;;10.98;;
27201;SDS011;14717;46.924;15.474;2024-01-11T06:26:47;24.85;;;11.25;;
27201;SDS011;14717;46.924;15.474;2024-01-11T06:29:12;30.25;;;12.27;;
27201;SDS011;14717;46.924;15.474;2024-01-11T06:31:37;26.17;;;11.95;;
27201;SDS011;14717;46.924;15.474;2024-01-11T06:34:03;24.92;;;10.90;;
27201;SDS011;14717;46.924;15.474;2024-01-11T06:36:29;24.75;;;10.93;;
27201;SDS011;14717;46.924;15.474;2024-01-11T06:38:55;23.98;;;11.02;;
27201;SDS011;14717;46.924;15.474;2024-01-11T06:41:20;25.33;;;10.98;;
27201;SDS011;14717;46.924;15.474;2024-01-11T06:43:46;27.83;;;12.00;;
27201;SDS011;14717;46.924;15.474;2024-01-11T06:46:11;27.45;;;12.02;;
27201;SDS011;14717;46.924;15.474;2024-01-11T06:48:36;27.50;;;12.32;;
27201;SDS011;14717;46.924;15.474;2024-01-11T06:51:03;27.80;;;11.68;;
27201;SDS011;14717;46.924;15.474;2024-01-11T06:53:28;26.08;;;11.73;;
27201;SDS011;14717;46.924;15.474;2024-01-11T06:55:53;24.55;;;11.80;;
27201;SDS011;14717;46.924;15.474;2024-01-11T06:58:22;25.00;;;11.77;;
27201;SDS011;14717;46.924;15.474;2024-01-11T07:00:48;24.67;;;11.13;;
27201;SDS011;14717;46.924;15.474;2024-01-11T07:03:14;28.55;;;11.85;;
27201;SDS011;14717;46.924;15.474;2024-01-11T07:05:40;26.45;;;10.45;;
27201;SDS011;14717;46.924;15.474;2024-01-11T07:08:05;23.35;;;11.10;;
27201;SDS011;14717;46.924;15.474;2024-01-11T07:10:31;24.40;;;10.95;;
27201;SDS011;14717;46.924;15.474;2024-01-11T07:12:57;26.75;;;11.13;;
27201;SDS011;14717;46.924;15.474;2024-01-11T07:15:22;27.15;;;12.20;;
27201;SDS011;14717;46.924;15.474;2024-01-11T07:17:48;25.55;;;11.55;;
27201;SDS011;14717;46.924;15.474;2024-01-11T07:20:14;26.10;;;12.02;;
27201;SDS011;14717;46.924;15.474;2024-01-11T07:22:41;25.27;;;11.63;;
27201;SDS011;14717;46.924;15.474;2024-01-11T07:25:07;23.48;;;9.40;;
27201;SDS011;14717;46.924;15.474;2024-01-11T07:27:32;27.55;;;11.45;;
27201;SDS011;14717;46.924;15.474;2024-01-11T07:29:58;29.80;;;11.65;;
27201;SDS011;14717;46.924;15.474;2024-01-11T07:32:23;27.83;;;10.65;;
27201;SDS011;14717;46.924;15.474;2024-01-11T07:34:49;23.88;;;10.43;;
27201;SDS011;14717;46.924;15.474;2024-01-11T07:37:14;29.88;;;12.40;;
27201;SDS011;14717;46.924;15.474;2024-01-11T07:39:39;27.20;;;10.85;;
27201;SDS011;14717;46.924;15.474;2024-01-11T07:42:05;26.70;;;11.45;;
27201;SDS011;14717;46.924;15.474;2024-01-11T07:44:30;25.85;;;11.68;;
27201;SDS011;14717;46.924;15.474;2024-01-11T07:46:55;26.55;;;10.98;;
27201;SDS011;14717;46.924;15.474;2024-01-11T07:49:21;23.65;;;9.88;;
27201;SDS011;14717;46.924;15.474;2024-01-11T07:51:46;29.00;;;10.35;;
27201;SDS011;14717;46.924;15.474;2024-01-11T07:54:11;23.52;;;11.13;;
27201;SDS011;14717;46.924;15.474;2024-01-11T07:56:37;21.35;;;9.20;;
27201;SDS011;14717;46.924;15.474;2024-01-11T07:59:02;29.35;;;10.85;;
27201;SDS011;14717;46.924;15.474;2024-01-11T08:01:28;23.55;;;10.73;;
27201;SDS011;14717;46.924;15.474;2024-01-11T08:03:53;32.75;;;11.02;;
27201;SDS011;14717;46.924;15.474;2024-01-11T08:06:18;25.45;;;11.70;;
27201;SDS011;14717;46.924;15.474;2024-01-11T08:08:44;27.60;;;11.45;;
27201;SDS011;14717;46.924;15.474;2024-01-11T08:11:09;30.17;;;11.73;;
27201;SDS011;14717;46.924;15.474;2024-01-11T08:13:37;30.27;;;12.73;;
27201;SDS011;14717;46.924;15.474;2024-01-11T08:16:03;27.55;;;12.48;;
27201;SDS011;14717;46.924;15.474;2024-01-11T08:18:30;24.75;;;11.38;;
27201;SDS011;14717;46.924;15.474;2024-01-11T08:20:55;26.63;;;11.75;;
27201;SDS011;14717;46.924;15.474;2024-01-11T08:23:21;29.25;;;11.93;;
27201;SDS011;14717;46.924;15.474;2024-01-11T08:25:46;28.40;;;12.35;;
27201;SDS011;14717;46.924;15.474;2024-01-11T08:28:12;27.00;;;12.85;;
27201;SDS011;14717;46.924;15.474;2024-01-11T08:30:37;24.85;;;12.48;;
27201;SDS011;14717;46.924;15.474;2024-01-11T08:33:02;29.80;;;11.70;;
27201;SDS011;14717;46.924;15.474;2024-01-11T08:35:29;26.73;;;12.15;;
27201;SDS011;14717;46.924;15.474;2024-01-11T08:37:54;26.25;;;11.60;;
27201;SDS011;14717;46.924;15.474;2024-01-11T08:40:20;28.98;;;12.43;;
27201;SDS011;14717;46.924;15.474;2024-01-11T08:42:45;30.95;;;12.40;;
27201;SDS011;14717;46.924;15.474;2024-01-11T08:45:11;30.98;;;12.05;;
27201;SDS011;14717;46.924;15.474;2024-01-11T08:47:42;24.17;;;11.43;;
27201;SDS011;14717;46.924;15.474;2024-01-11T08:50:11;27.23;;;11.00;;
27201;SDS011;14717;46.924;15.474;2024-01-11T08:52:38;22.35;;;10.75;;
27201;SDS011;14717;46.924;15.474;2024-01-11T08:55:04;30.95;;;11.27;;
27201;SDS011;14717;46.924;15.474;2024-01-11T08:57:30;24.17;;;10.32;;
27201;SDS011;14717;46.924;15.474;2024-01-11T08:59:55;22.83;;;11.05;;
27201;SDS011;14717;46.924;15.474;2024-01-11T09:02:21;20.80;;;10.18;;
27201;SDS011;14717;46.924;15.474;2024-01-11T09:04:47;23.80;;;10.50;;
27201;SDS011;14717;46.924;15.474;2024-01-11T09:07:12;22.27;;;10.27;;
27201;SDS011;14717;46.924;15.474;2024-01-11T09:09:37;21.58;;;9.13;;
27201;SDS011;14717;46.924;15.474;2024-01-11T09:12:03;25.27;;;10.30;;
27201;SDS011;14717;46.924;15.474;2024-01-11T09:14:29;19.90;;;9.77;;
27201;SDS011;14717;46.924;15.474;2024-01-11T09:16:54;22.38;;;10.25;;
27201;SDS011;14717;46.924;15.474;2024-01-11T09:19:20;23.65;;;10.15;;
27201;SDS011;14717;46.924;15.474;2024-01-11T09:21:45;21.27;;;9.93;;
27201;SDS011;14717;46.924;15.474;2024-01-11T09:24:10;21.48;;;9.95;;
27201;SDS011;14717;46.924;15.474;2024-01-11T09:26:36;23.10;;;10.48;;
27201;SDS011;14717;46.924;15.474;2024-01-11T09:29:01;24.25;;;9.82;;
27201;SDS011;14717;46.924;15.474;2024-01-11T09:31:27;26.63;;;9.85;;
27201;SDS011;14717;46.924;15.474;2024-01-11T09:33:52;22.25;;;9.38;;
27201;SDS011;14717;46.924;15.474;2024-01-11T09:36:18;18.42;;;9.20;;
27201;SDS011;14717;46.924;15.474;2024-01-11T09:38:44;26.30;;;10.18;;
27201;SDS011;14717;46.924;15.474;2024-01-11T09:41:12;19.08;;;9.23;;
27201;SDS011;14717;46.924;15.474;2024-01-11T09:43:38;17.90;;;9.25;;
27201;SDS011;14717;46.924;15.474;2024-01-11T09:46:07;20.48;;;9.57;;
27201;SDS011;14717;46.924;15.474;2024-01-11T09:48:37;19.42;;;9.18;;
27201;SDS011;14717;46.924;15.474;2024-01-11T09:51:04;18.50;;;8.75;;
27201;SDS011;14717;46.924;15.474;2024-01-11T09:53:33;20.80;;;9.40;;
27201;SDS011;14717;46.924;15.474;2024-01-11T09:55:59;16.65;;;8.07;;
27201;SDS011;14717;46.924;15.474;2024-01-11T09:58:25;24.30;;;9.93;;
27201;SDS011;14717;46.924;15.474;2024-01-11T10:00:54;19.50;;;9.02;;
27201;SDS011;14717;46.924;15.474;2024-01-11T10:03:22;20.08;;;9.20;;
27201;SDS011;14717;46.924;15.474;2024-01-11T10:05:49;16.27;;;8.25;;
27201;SDS011;14717;46.924;15.474;2024-01-11T10:08:16;19.38;;;8.60;;
27201;SDS011;14717;46.924;15.474;2024-01-11T10:10:44;19.05;;;7.95;;
27201;SDS011;14717;46.924;15.474;2024-01-11T10:13:09;17.02;;;8.30;;
27201;SDS011;14717;46.924;15.474;2024-01-11T10:15:35;17.00;;;8.15;;
27201;SDS011;14717;46.924;15.474;2024-01-11T10:18:01;15.55;;;7.78;;
27201;SDS011;14717;46.924;15.474;2024-01-11T10:20:26;23.08;;;9.18;;
27201;SDS011;14717;46.924;15.474;2024-01-11T10:22:55;21.05;;;10.60;;
27201;SDS011;14717;46.924;15.474;2024-01-11T10:25:21;26.25;;;9.88;;
27201;SDS011;14717;46.924;15.474;2024-01-11T10:27:48;24.30;;;8.90;;
27201;SDS011;14717;46.924;15.474;2024-01-11T10:30:13;19.27;;;9.40;;
27201;SDS011;14717;46.924;15.474;2024-01-11T10:32:43;16.73;;;8.35;;
27201;SDS011;14717;46.924;15.474;2024-01-11T10:35:09;19.15;;;8.93;;
27201;SDS011;14717;46.924;15.474;2024-01-11T10:37:35;25.27;;;9.38;;
27201;SDS011;14717;46.924;15.474;2024-01-11T10:40:03;16.90;;;9.20;;
27201;SDS011;14717;46.924;15.474;2024-01-11T10:42:34;17.17;;;8.15;;
27201;SDS011;14717;46.924;15.474;2024-01-11T10:45:04;15.57;;;7.50;;
27201;SDS011;14717;46.924;15.474;2024-01-11T10:50:26;19.70;;;8.80;;
27201;SDS011;14717;46.924;15.474;2024-01-11T10:53:25;18.00;;;8.32;;
27201;SDS011;14717;46.924;15.474;2024-01-11T10:56:07;21.00;;;7.85;;
27201;SDS011;14717;46.924;15.474;2024-01-11T11:01:00;17.05;;;7.20;;
27201;SDS011;14717;46.924;15.474;2024-01-11T11:03:29;15.52;;;7.85;;
27201;SDS011;14717;46.924;15.474;2024-01-11T11:05:56;15.55;;;7.07;;
27201;SDS011;14717;46.924;15.474;2024-01-11T11:08:23;14.85;;;7.57;;
27201;SDS011;14717;46.924;15.474;2024-01-11T11:10:58;18.58;;;8.00;;
27201;SDS011;14717;46.924;15.474;2024-01-11T11:13:24;16.38;;;7.57;;
27201;SDS011;14717;46.924;15.474;2024-01-11T11:15:51;12.90;;;7.35;;
27201;SDS011;14717;46.924;15.474;2024-01-11T11:18:18;17.38;;;8.02;;
27201;SDS011;14717;46.924;15.474;2024-01-11T11:20:45;18.02;;;7.35;;
27201;SDS011;14717;46.924;15.474;2024-01-11T11:23:12;16.00;;;6.80;;
27201;SDS011;14717;46.924;15.474;2024-01-11T11:25:42;15.80;;;7.60;;
27201;SDS011;14717;46.924;15.474;2024-01-11T11:28:11;18.80;;;8.02;;
27201;SDS011;14717;46.924;15.474;2024-01-11T11:30:37;14.20;;;7.28;;
27201;SDS011;14717;46.924;15.474;2024-01-11T11:35:35;16.13;;;7.22;;
27201;SDS011;14717;46.924;15.474;2024-01-11T11:38:00;14.13;;;6.97;;
27201;SDS011;14717;46.924;15.474;2024-01-11T11:40:37;16.27;;;7.40;;
27201;SDS011;14717;46.924;15.474;2024-01-11T11:43:08;17.58;;;7.28;;
27201;SDS011;14717;46.924;15.474;2024-01-11T11:45:34;15.02;;;7.60;;
27201;SDS011;14717;46.924;15.474;2024-01-11T11:48:00;16.23;;;7.50;;
27201;SDS011;14717;46.924;15.474;2024-01-11T11:50:25;14.10;;;6.95;;
27201;SDS011;14717;46.924;15.474;2024-01-11T11:52:55;17.50;;;6.57;;
27201;SDS011;14717;46.924;15.474;2024-01-11T11:55:22;12.68;;;6.88;;
27201;SDS011;14717;46.924;15.474;2024-01-11T11:57:51;16.00;;;7.20;;
27201;SDS011;14717;46.924;15.474;2024-01-11T12:00:18;13.18;;;6.90;;
27201;SDS011;14717;46.924;15.474;2024-01-11T12:05:12;13.75;;;6.78;;
27201;SDS011;14717;46.924;15.474;2024-01-11T12:07:37;15.05;;;6.70;;
27201;SDS011;14717;46.924;15.474;2024-01-11T12:10:03;14.55;;;6.88;;
27201;SDS011;14717;46.924;15.474;2024-01-11T12:14:55;14.07;;;6.75;;
27201;SDS011;14717;46.924;15.474;2024-01-11T12:17:23;16.45;;;6.45;;
27201;SDS011;14717;46.924;15.474;2024-01-11T12:19:51;13.23;;;6.93;;
27201;SDS011;14717;46.924;15.474;2024-01-11T12:22:16;15.90;;;6.32;;
27201;SDS011;14717;46.924;15.474;2024-01-11T12:24:42;13.70;;;6.03;;
27201;SDS011;14717;46.924;15.474;2024-01-11T12:27:07;11.85;;;6.13;;
27201;SDS011;14717;46.924;15.474;2024-01-11T12:29:33;15.55;;;6.68;;
27201;SDS011;14717;46.924;15.474;2024-01-11T12:32:11;16.83;;;6.88;;
27201;SDS011;14717;46.924;15.474;2024-01-11T12:34:43;13.90;;;6.82;;
27201;SDS011;14717;46.924;15.474;2024-01-11T12:37:09;15.07;;;7.07;;
27201;SDS011;14717;46.924;15.474;2024-01-11T12:39:37;22.50;;;8.20;;
27201;SDS011;14717;46.924;15.474;2024-01-11T12:42:06;11.85;;;5.95;;
27201;SDS011;14717;46.924;15.474;2024-01-11T12:44:32;13.73;;;6.55;;
27201;SDS011;14717;46.924;15.474;2024-01-11T12:46:58;16.25;;;6.95;;
27201;SDS011;14717;46.924;15.474;2024-01-11T12:49:23;12.02;;;6.97;;
27201;SDS011;14717;46.924;15.474;2024-01-11T12:51:49;12.73;;;6.70;;
27201;SDS011;14717;46.924;15.474;2024-01-11T12:54:18;13.95;;;6.78;;
27201;SDS011;14717;46.924;15.474;2024-01-11T12:56:47;13.27;;;6.28;;
27201;SDS011;14717;46.924;15.474;2024-01-11T12:59:13;16.38;;;6.50;;
27201;SDS011;14717;46.924;15.474;2024-01-11T13:01:41;13.88;;;6.93;;
27201;SDS011;14717;46.924;15.474;2024-01-11T13:04:10;13.75;;;6.93;;
27201;SDS011;14717;46.924;15.474;2024-01-11T13:06:36;15.52;;;6.75;;
27201;SDS011;14717;46.924;15.474;2024-01-11T13:09:01;18.13;;;6.85;;
27201;SDS011;14717;46.924;15.474;2024-01-11T13:11:28;14.35;;;6.68;;
27201;SDS011;14717;46.924;15.474;2024-01-11T13:13:53;18.73;;;6.85;;
27201;SDS011;14717;46.924;15.474;2024-01-11T13:16:19;13.80;;;6.60;;
27201;SDS011;14717;46.924;15.474;2024-01-11T13:18:45;15.05;;;6.63;;
27201;SDS011;14717;46.924;15.474;2024-01-11T13:23:39;13.32;;;6.20;;
27201;SDS011;14717;46.924;15.474;2024-01-11T13:26:05;12.57;;;6.50;;
27201;SDS011;14717;46.924;15.474;2024-01-11T13:28:31;14.57;;;6.32;;
27201;SDS011;14717;46.924;15.474;2024-01-11T13:30:58;14.05;;;6.60;;
27201;SDS011;14717;46.924;15.474;2024-01-11T13:33:24;14.50;;;6.00;;
27201;SDS011;14717;46.924;15.474;2024-01-11T13:35:49;15.27;;;6.53;;
27201;SDS011;14717;46.924;15.474;2024-01-11T13:38:15;12.77;;;6.15;;
27201;SDS011;14717;46.924;15.474;2024-01-11T13:40:41;13.63;;;6.30;;
27201;SDS011;14717;46.924;15.474;2024-01-11T13:43:08;12.30;;;6.03;;
27201;SDS011;14717;46.924;15.474;2024-01-11T13:45:34;13.60;;;5.80;;
27201;SDS011;14717;46.924;15.474;2024-01-11T13:48:03;13.38;;;6.32;;
27201;SDS011;14717;46.924;15.474;2024-01-11T13:50:32;13.85;;;6.32;;
27201;SDS011;14717;46.924;15.474;2024-01-11T13:52:58;13.68;;;6.20;;
27201;SDS011;14717;46.924;15.474;2024-01-11T13:55:24;13.35;;;6.53;;
27201;SDS011;14717;46.924;15.474;2024-01-11T13:57:50;17.67;;;6.88;;
27201;SDS011;14717;46.924;15.474;2024-01-11T14:00:18;13.27;;;6.88;;
27201;SDS011;14717;46.924;15.474;2024-01-11T14:02:45;17.65;;;6.20;;
27201;SDS011;14717;46.924;15.474;2024-01-11T14:07:39;13.48;;;7.32;;
27201;SDS011;14717;46.924;15.474;2024-01-11T14:10:05;12.85;;;6.43;;
27201;SDS011;14717;46.924;15.474;2024-01-11T14:12:33;13.50;;;5.93;;
27201;SDS011;14717;46.924;15.474;2024-01-11T14:14:59;14.43;;;6.25;;
27201;SDS011;14717;46.924;15.474;2024-01-11T14:17:25;12.60;;;6.05;;
27201;SDS011;14717;46.924;15.474;2024-01-11T14:39:50;13.80;;;5.80;;
27201;SDS011;14717;46.924;15.474;2024-01-11T15:00:41;10.93;;;5.47;;
27201;SDS011;14717;46.924;15.474;2024-01-11T15:16:28;14.05;;;7.72;;
27201;SDS011;14717;46.924;15.474;2024-01-11T15:19:20;18.17;;;8.02;;